sensor_id;sensor_type;location;lat;lon;timestamp;pressure;altitude;pressure_sealevel;temperature;humidity
47522;BME280;32291;52.010;4.446;2023-05-10T00:00:21;78077.72;;;-144.67;100.00
47522;BME280;32291;52.010;4.446;2023-05-10T00:01:24;78077.72;;;-144.67;100.00
47522;BME280;32291;52.010;4.446;2023-05-10T00:02:26;78079.88;;;-144.67;100.00
47522;BME280;32291;52.010;4.446;2023-05-10T00:03:27;78079.88;;;-144.67;100.00
47522;BME280;32291;52.010;4.446;2023-05-10T00:04:29;78082.00;;;-144.67;100.00
47522;BME280;32291;52.010;4.446;2023-05-10T00:05:31;78082.00;;;-144.67;100.00
47522;BME280;32291;52.010;4.446;2023-05-10T00:06:33;78090.56;;;-144.67;100.00
47522;BME280;32291;52.010;4.446;2023-05-10T00:07:35;78092.72;;;-144.67;100.00
47522;BME280;32291;52.010;4.446;2023-05-10T00:08:37;78099.13;;;-144.67;100.00
47522;BME280;32291;52.010;4.446;2023-05-10T00:09:39;78090.56;;;-144.67;100.00
47522;BME280;32291;52.010;4.446;2023-05-10T00:10:41;78107.69;;;-144.67;100.00
47522;BME280;32291;52.010;4.446;2023-05-10T00:11:43;78105.56;;;-144.67;100.00
47522;BME280;32291;52.010;4.446;2023-05-10T00:12:44;78099.13;;;-144.67;100.00
47522;BME280;32291;52.010;4.446;2023-05-10T00:13:46;78109.84;;;-144.67;100.00
47522;BME280;32291;52.010;4.446;2023-05-10T00:14:48;78116.25;;;-144.67;100.00
47522;BME280;32291;52.010;4.446;2023-05-10T00:15:50;78116.25;;;-144.67;100.00
47522;BME280;32291;52.010;4.446;2023-05-10T00:16:52;78118.41;;;-144.67;100.00
47522;BME280;32291;52.010;4.446;2023-05-10T00:17:53;78116.25;;;-144.67;100.00
47522;BME280;32291;52.010;4.446;2023-05-10T00:18:55;78111.97;;;-144.67;100.00
47522;BME280;32291;52.010;4.446;2023-05-10T00:19:56;78107.69;;;-144.67;100.00
47522;BME280;32291;52.010;4.446;2023-05-10T00:20:59;78111.97;;;-144.67;100.00
47522;BME280;32291;52.010;4.446;2023-05-10T00:22:00;78109.84;;;-144.67;100.00
47522;BME280;32291;52.010;4.446;2023-05-10T00:23:02;78111.97;;;-144.67;100.00
47522;BME280;32291;52.010;4.446;2023-05-10T00:24:04;78105.56;;;-144.67;100.00
47522;BME280;32291;52.010;4.446;2023-05-10T00:25:07;78101.28;;;-144.67;100.00
47522;BME280;32291;52.010;4.446;2023-05-10T00:26:09;78099.13;;;-144.67;100.00
47522;BME280;32291;52.010;4.446;2023-05-10T00:27:11;78107.69;;;-144.67;100.00
47522;BME280;32291;52.010;4.446;2023-05-10T00:28:13;78109.84;;;-144.67;100.00
47522;BME280;32291;52.010;4.446;2023-05-10T00:29:15;78118.41;;;-144.67;100.00
47522;BME280;32291;52.010;4.446;2023-05-10T00:30:16;78124.81;;;-144.67;100.00
47522;BME280;32291;52.010;4.446;2023-05-10T00:31:18;78124.81;;;-144.67;100.00
47522;BME280;32291;52.010;4.446;2023-05-10T00:32:20;78120.53;;;-144.67;100.00
47522;BME280;32291;52.010;4.446;2023-05-10T00:33:22;78129.09;;;-144.67;100.00
47522;BME280;32291;52.010;4.446;2023-05-10T00:34:24;78124.81;;;-144.67;100.00
47522;BME280;32291;52.010;4.446;2023-05-10T00:35:26;78133.38;;;-144.67;100.00
47522;BME280;32291;52.010;4.446;2023-05-10T00:36:28;78131.25;;;-144.67;100.00
47522;BME280;32291;52.010;4.446;2023-05-10T00:37:30;78124.81;;;-144.67;100.00
47522;BME280;32291;52.010;4.446;2023-05-10T00:38:32;78124.81;;;-144.67;100.00
47522;BME280;32291;52.010;4.446;2023-05-10T00:39:34;78126.97;;;-144.67;100.00
47522;BME280;32291;52.010;4.446;2023-05-10T00:40:36;78111.97;;;-144.67;100.00
47522;BME280;32291;52.010;4.446;2023-05-10T00:41:39;78109.84;;;-144.67;100.00
47522;BME280;32291;52.010;4.446;2023-05-10T00:42:40;78103.41;;;-144.67;100.00
47522;BME280;32291;52.010;4.446;2023-05-10T00:43:42;78099.13;;;-144.67;100.00
47522;BME280;32291;52.010;4.446;2023-05-10T00:44:44;78086.28;;;-144.67;100.00
47522;BME280;32291;52.010;4.446;2023-05-10T00:45:46;78086.28;;;-144.67;100.00
47522;BME280;32291;52.010;4.446;2023-05-10T00:46:49;78073.44;;;-144.67;100.00
47522;BME280;32291;52.010;4.446;2023-05-10T00:47:51;78071.31;;;-144.67;100.00
47522;BME280;32291;52.010;4.446;2023-05-10T00:48:56;78064.88;;;-144.67;100.00
47522;BME280;32291;52.010;4.446;2023-05-10T00:49:59;78054.16;;;-144.67;100.00
47522;BME280;32291;52.010;4.446;2023-05-10T00:51:02;78049.88;;;-144.67;100.00
47522;BME280;32291;52.010;4.446;2023-05-10T00:52:04;78041.31;;;-144.67;100.00
47522;BME280;32291;52.010;4.446;2023-05-10T00:53:07;78043.47;;;-144.67;100.00
47522;BME280;32291;52.010;4.446;2023-05-10T00:54:12;78030.63;;;-144.67;100.00
47522;BME280;32291;52.010;4.446;2023-05-10T00:55:15;78030.63;;;-144.67;100.00
47522;BME280;32291;52.010;4.446;2023-05-10T00:56:17;78030.63;;;-144.67;100.00
47522;BME280;32291;52.010;4.446;2023-05-10T00:57:19;78019.91;;;-144.67;100.00
47522;BME280;32291;52.010;4.446;2023-05-10T00:58:21;78017.78;;;-144.67;100.00
47522;BME280;32291;52.010;4.446;2023-05-10T00:59:25;78013.50;;;-144.67;100.00
47522;BME280;32291;52.010;4.446;2023-05-10T01:00:27;78017.78;;;-144.67;100.00
47522;BME280;32291;52.010;4.446;2023-05-10T01:01:29;78013.50;;;-144.67;100.00
47522;BME280;32291;52.010;4.446;2023-05-10T01:02:33;78009.22;;;-144.67;100.00
47522;BME280;32291;52.010;4.446;2023-05-10T01:03:36;78009.22;;;-144.67;100.00
47522;BME280;32291;52.010;4.446;2023-05-10T01:04:38;78017.78;;;-144.67;100.00
47522;BME280;32291;52.010;4.446;2023-05-10T01:05:41;78007.06;;;-144.67;100.00
47522;BME280;32291;52.010;4.446;2023-05-10T01:06:43;78004.94;;;-144.67;100.00
47522;BME280;32291;52.010;4.446;2023-05-10T01:07:45;78007.06;;;-144.67;100.00
47522;BME280;32291;52.010;4.446;2023-05-10T01:08:47;78009.22;;;-144.67;100.00
47522;BME280;32291;52.010;4.446;2023-05-10T01:09:48;78011.34;;;-144.67;100.00
47522;BME280;32291;52.010;4.446;2023-05-10T01:10:50;78009.22;;;-144.67;100.00
47522;BME280;32291;52.010;4.446;2023-05-10T01:11:53;78000.66;;;-144.67;100.00
47522;BME280;32291;52.010;4.446;2023-05-10T01:12:55;78002.78;;;-144.67;100.00
47522;BME280;32291;52.010;4.446;2023-05-10T01:13:59;77996.38;;;-144.67;100.00
47522;BME280;32291;52.010;4.446;2023-05-10T01:15:01;77996.38;;;-144.67;100.00
47522;BME280;32291;52.010;4.446;2023-05-10T01:16:04;77992.09;;;-144.67;100.00
47522;BME280;32291;52.010;4.446;2023-05-10T01:17:08;77985.66;;;-144.67;100.00
47522;BME280;32291;52.010;4.446;2023-05-10T01:18:11;77983.53;;;-144.67;100.00
47522;BME280;32291;52.010;4.446;2023-05-10T01:19:19;77979.25;;;-144.67;100.00
47522;BME280;32291;52.010;4.446;2023-05-10T01:20:24;77981.38;;;-144.67;100.00
47522;BME280;32291;52.010;4.446;2023-05-10T01:29:35;77985.66;;;-144.67;100.00
47522;BME280;32291;52.010;4.446;2023-05-10T01:31:23;77992.09;;;-144.67;100.00
47522;BME280;32291;52.010;4.446;2023-05-10T01:32:50;77992.09;;;-144.67;100.00
47522;BME280;32291;52.010;4.446;2023-05-10T01:34:16;78000.66;;;-144.67;100.00
47522;BME280;32291;52.010;4.446;2023-05-10T01:37:19;77992.09;;;-144.67;100.00
47522;BME280;32291;52.010;4.446;2023-05-10T01:38:58;77996.38;;;-144.67;100.00
47522;BME280;32291;52.010;4.446;2023-05-10T01:40:35;77998.50;;;-144.67;100.00
47522;BME280;32291;52.010;4.446;2023-05-10T01:41:54;77994.22;;;-144.67;100.00
47522;BME280;32291;52.010;4.446;2023-05-10T01:43:04;77992.09;;;-144.67;100.00
47522;BME280;32291;52.010;4.446;2023-05-10T01:44:29;77994.22;;;-144.67;100.00
47522;BME280;32291;52.010;4.446;2023-05-10T01:46:07;77989.94;;;-144.67;100.00
47522;BME280;32291;52.010;4.446;2023-05-10T01:47:21;77989.94;;;-144.67;100.00
47522;BME280;32291;52.010;4.446;2023-05-10T01:48:27;77974.97;;;-144.67;100.00
47522;BME280;32291;52.010;4.446;2023-05-10T01:49:36;77985.66;;;-144.67;100.00
47522;BME280;32291;52.010;4.446;2023-05-10T01:50:45;77979.25;;;-144.67;100.00
47522;BME280;32291;52.010;4.446;2023-05-10T01:51:53;77977.09;;;-144.67;100.00
47522;BME280;32291;52.010;4.446;2023-05-10T01:53:00;77983.53;;;-144.67;100.00
47522;BME280;32291;52.010;4.446;2023-05-10T01:54:05;77966.41;;;-144.67;100.00
47522;BME280;32291;52.010;4.446;2023-05-10T01:55:14;77968.53;;;-144.67;100.00
47522;BME280;32291;52.010;4.446;2023-05-10T01:56:23;77970.69;;;-144.67;100.00
47522;BME280;32291;52.010;4.446;2023-05-10T01:57:34;77966.41;;;-144.67;100.00
47522;BME280;32291;52.010;4.446;2023-05-10T01:58:37;77970.69;;;-144.67;100.00
47522;BME280;32291;52.010;4.446;2023-05-10T01:59:45;77959.97;;;-144.67;100.00
47522;BME280;32291;52.010;4.446;2023-05-10T02:00:53;77959.97;;;-144.67;100.00
47522;BME280;32291;52.010;4.446;2023-05-10T02:01:59;77968.53;;;-144.67;100.00
47522;BME280;32291;52.010;4.446;2023-05-10T02:03:07;77970.69;;;-144.67;100.00
47522;BME280;32291;52.010;4.446;2023-05-10T02:04:13;77964.25;;;-144.67;100.00
47522;BME280;32291;52.010;4.446;2023-05-10T02:05:17;77962.13;;;-144.67;100.00
47522;BME280;32291;52.010;4.446;2023-05-10T02:06:22;77964.25;;;-144.67;100.00
47522;BME280;32291;52.010;4.446;2023-05-10T02:07:28;77962.13;;;-144.67;100.00
47522;BME280;32291;52.010;4.446;2023-05-10T02:08:32;77959.97;;;-144.67;100.00
47522;BME280;32291;52.010;4.446;2023-05-10T02:09:38;77955.69;;;-144.67;100.00
47522;BME280;32291;52.010;4.446;2023-05-10T02:10:40;77957.84;;;-144.67;100.00
47522;BME280;32291;52.010;4.446;2023-05-10T02:11:44;77957.84;;;-144.67;100.00
47522;BME280;32291;52.010;4.446;2023-05-10T02:12:48;77953.56;;;-144.67;100.00
47522;BME280;32291;52.010;4.446;2023-05-10T02:13:53;77955.69;;;-144.67;100.00
47522;BME280;32291;52.010;4.446;2023-05-10T02:14:59;77957.84;;;-144.67;100.00
47522;BME280;32291;52.010;4.446;2023-05-10T02:16:06;77957.84;;;-144.67;100.00
47522;BME280;32291;52.010;4.446;2023-05-10T02:17:09;77962.13;;;-144.67;100.00
47522;BME280;32291;52.010;4.446;2023-05-10T02:18:12;77957.84;;;-144.67;100.00
47522;BME280;32291;52.010;4.446;2023-05-10T02:19:16;77953.56;;;-144.67;100.00
47522;BME280;32291;52.010;4.446;2023-05-10T02:20:20;77951.41;;;-144.67;100.00
47522;BME280;32291;52.010;4.446;2023-05-10T02:21:25;77953.56;;;-144.67;100.00
47522;BME280;32291;52.010;4.446;2023-05-10T02:22:28;77949.28;;;-144.67;100.00
47522;BME280;32291;52.010;4.446;2023-05-10T02:23:31;77957.84;;;-144.67;100.00
47522;BME280;32291;52.010;4.446;2023-05-10T02:24:34;77957.84;;;-144.67;100.00
47522;BME280;32291;52.010;4.446;2023-05-10T02:25:38;77951.41;;;-144.67;100.00
47522;BME280;32291;52.010;4.446;2023-05-10T02:26:41;77947.13;;;-144.67;100.00
47522;BME280;32291;52.010;4.446;2023-05-10T02:27:46;77951.41;;;-144.67;100.00
47522;BME280;32291;52.010;4.446;2023-05-10T02:28:50;77957.84;;;-144.67;100.00
47522;BME280;32291;52.010;4.446;2023-05-10T02:29:54;77949.28;;;-144.67;100.00
47522;BME280;32291;52.010;4.446;2023-05-10T02:30:56;77953.56;;;-144.67;100.00
47522;BME280;32291;52.010;4.446;2023-05-10T02:31:59;77949.28;;;-144.67;100.00
47522;BME280;32291;52.010;4.446;2023-05-10T02:33:04;77953.56;;;-144.67;100.00
47522;BME280;32291;52.010;4.446;2023-05-10T02:34:07;77957.84;;;-144.67;100.00
47522;BME280;32291;52.010;4.446;2023-05-10T02:35:11;77953.56;;;-144.67;100.00
47522;BME280;32291;52.010;4.446;2023-05-10T02:36:15;77949.28;;;-144.67;100.00
47522;BME280;32291;52.010;4.446;2023-05-10T02:37:20;77945.00;;;-144.67;100.00
47522;BME280;32291;52.010;4.446;2023-05-10T02:38:24;77945.00;;;-144.67;100.00
47522;BME280;32291;52.010;4.446;2023-05-10T02:39:28;77951.41;;;-144.67;100.00
47522;BME280;32291;52.010;4.446;2023-05-10T02:40:33;77947.13;;;-144.67;100.00
47522;BME280;32291;52.010;4.446;2023-05-10T02:41:37;77945.00;;;-144.67;100.00
47522;BME280;32291;52.010;4.446;2023-05-10T02:42:43;77945.00;;;-144.67;100.00
47522;BME280;32291;52.010;4.446;2023-05-10T02:43:50;77945.00;;;-144.67;100.00
47522;BME280;32291;52.010;4.446;2023-05-10T02:44:59;77955.69;;;-144.67;100.00
47522;BME280;32291;52.010;4.446;2023-05-10T02:46:03;77953.56;;;-144.67;100.00
47522;BME280;32291;52.010;4.446;2023-05-10T02:47:05;77953.56;;;-144.67;100.00
47522;BME280;32291;52.010;4.446;2023-05-10T02:48:06;77945.00;;;-144.67;100.00
47522;BME280;32291;52.010;4.446;2023-05-10T02:49:08;77945.00;;;-144.67;100.00
47522;BME280;32291;52.010;4.446;2023-05-10T02:50:10;77947.13;;;-144.67;100.00
47522;BME280;32291;52.010;4.446;2023-05-10T02:51:16;77949.28;;;-144.67;100.00
47522;BME280;32291;52.010;4.446;2023-05-10T02:52:39;77959.97;;;-144.67;100.00
47522;BME280;32291;52.010;4.446;2023-05-10T02:53:44;77951.41;;;-144.67;100.00
47522;BME280;32291;52.010;4.446;2023-05-10T02:54:53;77953.56;;;-144.67;100.00
47522;BME280;32291;52.010;4.446;2023-05-10T02:56:00;77936.44;;;-144.67;100.00
47522;BME280;32291;52.010;4.446;2023-05-10T02:57:05;77945.00;;;-144.67;100.00
47522;BME280;32291;52.010;4.446;2023-05-10T02:58:08;77940.72;;;-144.67;100.00
47522;BME280;32291;52.010;4.446;2023-05-10T02:59:09;77945.00;;;-144.67;100.00
47522;BME280;32291;52.010;4.446;2023-05-10T03:00:12;77934.28;;;-144.67;100.00
47522;BME280;32291;52.010;4.446;2023-05-10T03:01:14;77938.56;;;-144.67;100.00
47522;BME280;32291;52.010;4.446;2023-05-10T03:02:16;77942.84;;;-144.67;100.00
47522;BME280;32291;52.010;4.446;2023-05-10T03:03:19;77942.84;;;-144.67;100.00
47522;BME280;32291;52.010;4.446;2023-05-10T03:04:21;77945.00;;;-144.67;100.00
47522;BME280;32291;52.010;4.446;2023-05-10T03:05:22;77940.72;;;-144.67;100.00
47522;BME280;32291;52.010;4.446;2023-05-10T03:06:25;77953.56;;;-144.67;100.00
47522;BME280;32291;52.010;4.446;2023-05-10T03:07:27;77953.56;;;-144.67;100.00
47522;BME280;32291;52.010;4.446;2023-05-10T03:08:29;77945.00;;;-144.67;100.00
47522;BME280;32291;52.010;4.446;2023-05-10T03:09:32;77940.72;;;-144.67;100.00
47522;BME280;32291;52.010;4.446;2023-05-10T03:12:39;77942.84;;;-144.67;100.00
47522;BME280;32291;52.010;4.446;2023-05-10T03:16:34;77942.84;;;-144.67;100.00
47522;BME280;32291;52.010;4.446;2023-05-10T03:18:12;77945.00;;;-144.67;100.00
47522;BME280;32291;52.010;4.446;2023-05-10T03:19:23;77938.56;;;-144.67;100.00
47522;BME280;32291;52.010;4.446;2023-05-10T03:20:42;77940.72;;;-144.67;100.00
47522;BME280;32291;52.010;4.446;2023-05-10T03:21:50;77945.00;;;-144.67;100.00
47522;BME280;32291;52.010;4.446;2023-05-10T03:23:04;77949.28;;;-144.67;100.00
47522;BME280;32291;52.010;4.446;2023-05-10T03:24:09;77953.56;;;-144.67;100.00
47522;BME280;32291;52.010;4.446;2023-05-10T03:25:16;77951.41;;;-144.67;100.00
47522;BME280;32291;52.010;4.446;2023-05-10T03:26:26;77949.28;;;-144.67;100.00
47522;BME280;32291;52.010;4.446;2023-05-10T03:27:29;77953.56;;;-144.67;100.00
47522;BME280;32291;52.010;4.446;2023-05-10T03:28:37;77955.69;;;-144.67;100.00
47522;BME280;32291;52.010;4.446;2023-05-10T03:29:40;77947.13;;;-144.67;100.00
47522;BME280;32291;52.010;4.446;2023-05-10T03:30:44;77942.84;;;-144.67;100.00
47522;BME280;32291;52.010;4.446;2023-05-10T03:31:46;77951.41;;;-144.67;100.00
47522;BME280;32291;52.010;4.446;2023-05-10T03:32:48;77949.28;;;-144.67;100.00
47522;BME280;32291;52.010;4.446;2023-05-10T03:33:52;77949.28;;;-144.67;100.00
47522;BME280;32291;52.010;4.446;2023-05-10T03:34:54;77951.41;;;-144.67;100.00
47522;BME280;32291;52.010;4.446;2023-05-10T03:35:55;77953.56;;;-144.67;100.00
47522;BME280;32291;52.010;4.446;2023-05-10T03:36:57;77955.69;;;-144.67;100.00
47522;BME280;32291;52.010;4.446;2023-05-10T03:37:59;77957.84;;;-144.67;100.00
47522;BME280;32291;52.010;4.446;2023-05-10T03:39:00;77959.97;;;-144.67;100.00
47522;BME280;32291;52.010;4.446;2023-05-10T03:40:03;77957.84;;;-144.67;100.00
47522;BME280;32291;52.010;4.446;2023-05-10T03:41:05;77957.84;;;-144.67;100.00
47522;BME280;32291;52.010;4.446;2023-05-10T03:42:07;77949.28;;;-144.67;100.00
47522;BME280;32291;52.010;4.446;2023-05-10T03:43:09;77957.84;;;-144.67;100.00
47522;BME280;32291;52.010;4.446;2023-05-10T03:44:11;77957.84;;;-144.67;100.00
47522;BME280;32291;52.010;4.446;2023-05-10T03:45:13;77955.69;;;-144.67;100.00
47522;BME280;32291;52.010;4.446;2023-05-10T03:46:15;77962.13;;;-144.67;100.00
47522;BME280;32291;52.010;4.446;2023-05-10T03:47:17;77962.13;;;-144.67;100.00
47522;BME280;32291;52.010;4.446;2023-05-10T03:48:19;77957.84;;;-144.67;100.00
47522;BME280;32291;52.010;4.446;2023-05-10T03:49:21;77953.56;;;-144.67;100.00
47522;BME280;32291;52.010;4.446;2023-05-10T03:50:23;77957.84;;;-144.67;100.00
47522;BME280;32291;52.010;4.446;2023-05-10T03:51:25;77959.97;;;-144.67;100.00
47522;BME280;32291;52.010;4.446;2023-05-10T03:52:29;77962.13;;;-144.67;100.00
47522;BME280;32291;52.010;4.446;2023-05-10T03:53:30;77964.25;;;-144.67;100.00
47522;BME280;32291;52.010;4.446;2023-05-10T03:54:32;77962.13;;;-144.67;100.00
47522;BME280;32291;52.010;4.446;2023-05-10T03:55:34;77962.13;;;-144.67;100.00
47522;BME280;32291;52.010;4.446;2023-05-10T03:56:38;77962.13;;;-144.67;100.00
47522;BME280;32291;52.010;4.446;2023-05-10T03:57:39;77957.84;;;-144.67;100.00
47522;BME280;32291;52.010;4.446;2023-05-10T03:58:41;77962.13;;;-144.67;100.00
47522;BME280;32291;52.010;4.446;2023-05-10T03:59:43;77962.13;;;-144.67;100.00
47522;BME280;32291;52.010;4.446;2023-05-10T04:00:45;77968.53;;;-144.67;100.00
47522;BME280;32291;52.010;4.446;2023-05-10T04:01:47;77959.97;;;-144.67;100.00
47522;BME280;32291;52.010;4.446;2023-05-10T04:02:49;77977.09;;;-144.67;100.00
47522;BME280;32291;52.010;4.446;2023-05-10T04:03:51;77966.41;;;-144.67;100.00
47522;BME280;32291;52.010;4.446;2023-05-10T04:04:53;77970.69;;;-144.67;100.00
47522;BME280;32291;52.010;4.446;2023-05-10T04:06:01;77979.25;;;-144.67;100.00
47522;BME280;32291;52.010;4.446;2023-05-10T04:07:03;77970.69;;;-144.67;100.00
47522;BME280;32291;52.010;4.446;2023-05-10T04:08:05;77979.25;;;-144.67;100.00
47522;BME280;32291;52.010;4.446;2023-05-10T04:09:07;77979.25;;;-144.67;100.00
47522;BME280;32291;52.010;4.446;2023-05-10T04:10:10;77983.53;;;-144.67;100.00
47522;BME280;32291;52.010;4.446;2023-05-10T04:11:13;77979.25;;;-144.67;100.00
47522;BME280;32291;52.010;4.446;2023-05-10T04:12:15;77974.97;;;-144.67;100.00
47522;BME280;32291;52.010;4.446;2023-05-10T04:13:17;77981.38;;;-144.67;100.00
47522;BME280;32291;52.010;4.446;2023-05-10T04:14:19;77981.38;;;-144.67;100.00
47522;BME280;32291;52.010;4.446;2023-05-10T04:15:20;77981.38;;;-144.67;100.00
47522;BME280;32291;52.010;4.446;2023-05-10T04:16:22;77974.97;;;-144.67;100.00
47522;BME280;32291;52.010;4.446;2023-05-10T04:17:24;77974.97;;;-144.67;100.00
47522;BME280;32291;52.010;4.446;2023-05-10T04:18:25;77981.38;;;-144.67;100.00
47522;BME280;32291;52.010;4.446;2023-05-10T04:19:31;77979.25;;;-144.67;100.00
47522;BME280;32291;52.010;4.446;2023-05-10T04:20:33;77987.81;;;-144.67;100.00
47522;BME280;32291;52.010;4.446;2023-05-10T04:21:36;77983.53;;;-144.67;100.00
47522;BME280;32291;52.010;4.446;2023-05-10T04:22:38;77985.66;;;-144.67;100.00
47522;BME280;32291;52.010;4.446;2023-05-10T04:23:40;77985.66;;;-144.67;100.00
47522;BME280;32291;52.010;4.446;2023-05-10T04:24:42;77983.53;;;-144.67;100.00
47522;BME280;32291;52.010;4.446;2023-05-10T04:25:43;77983.53;;;-144.67;100.00
47522;BME280;32291;52.010;4.446;2023-05-10T04:26:45;77979.25;;;-144.67;100.00
47522;BME280;32291;52.010;4.446;2023-05-10T04:27:46;77983.53;;;-144.67;100.00
47522;BME280;32291;52.010;4.446;2023-05-10T04:28:48;77989.94;;;-144.67;100.00
47522;BME280;32291;52.010;4.446;2023-05-10T04:29:50;78004.94;;;-144.67;100.00
47522;BME280;32291;52.010;4.446;2023-05-10T04:30:52;78002.78;;;-144.67;100.00
47522;BME280;32291;52.010;4.446;2023-05-10T04:31:54;78004.94;;;-144.67;100.00
47522;BME280;32291;52.010;4.446;2023-05-10T04:32:57;78009.22;;;-144.67;100.00
47522;BME280;32291;52.010;4.446;2023-05-10T04:34:00;78015.63;;;-144.67;100.00
47522;BME280;32291;52.010;4.446;2023-05-10T04:35:01;78017.78;;;-144.67;100.00
47522;BME280;32291;52.010;4.446;2023-05-10T04:36:05;78026.34;;;-144.67;100.00
47522;BME280;32291;52.010;4.446;2023-05-10T04:37:07;78017.78;;;-144.67;100.00
47522;BME280;32291;52.010;4.446;2023-05-10T04:38:09;78017.78;;;-144.67;100.00
47522;BME280;32291;52.010;4.446;2023-05-10T04:39:11;78022.06;;;-144.67;100.00
47522;BME280;32291;52.010;4.446;2023-05-10T04:40:16;78030.63;;;-144.67;100.00
47522;BME280;32291;52.010;4.446;2023-05-10T04:41:17;78028.47;;;-144.67;100.00
47522;BME280;32291;52.010;4.446;2023-05-10T04:42:19;78034.91;;;-144.67;100.00
47522;BME280;32291;52.010;4.446;2023-05-10T04:43:20;78034.91;;;-144.67;100.00
47522;BME280;32291;52.010;4.446;2023-05-10T04:44:22;78026.34;;;-144.67;100.00
47522;BME280;32291;52.010;4.446;2023-05-10T04:45:24;78026.34;;;-144.67;100.00
47522;BME280;32291;52.010;4.446;2023-05-10T04:46:26;78022.06;;;-144.67;100.00
47522;BME280;32291;52.010;4.446;2023-05-10T04:47:27;78022.06;;;-144.67;100.00
47522;BME280;32291;52.010;4.446;2023-05-10T04:48:29;78009.22;;;-144.67;100.00
47522;BME280;32291;52.010;4.446;2023-05-10T04:49:31;78009.22;;;-144.67;100.00
47522;BME280;32291;52.010;4.446;2023-05-10T04:50:32;77994.22;;;-144.67;100.00
47522;BME280;32291;52.010;4.446;2023-05-10T04:51:34;77996.38;;;-144.67;100.00
47522;BME280;32291;52.010;4.446;2023-05-10T04:52:36;77996.38;;;-144.67;100.00
47522;BME280;32291;52.010;4.446;2023-05-10T04:53:38;78000.66;;;-144.67;100.00
47522;BME280;32291;52.010;4.446;2023-05-10T04:54:40;78000.66;;;-144.67;100.00
47522;BME280;32291;52.010;4.446;2023-05-10T04:55:42;77992.09;;;-144.67;100.00
47522;BME280;32291;52.010;4.446;2023-05-10T04:56:43;77992.09;;;-144.67;100.00
47522;BME280;32291;52.010;4.446;2023-05-10T04:57:45;77987.81;;;-144.67;100.00
47522;BME280;32291;52.010;4.446;2023-05-10T04:58:46;77985.66;;;-144.67;100.00
47522;BME280;32291;52.010;4.446;2023-05-10T04:59:48;77983.53;;;-144.67;100.00
47522;BME280;32291;52.010;4.446;2023-05-10T05:00:50;77985.66;;;-144.67;100.00
47522;BME280;32291;52.010;4.446;2023-05-10T05:01:52;77992.09;;;-144.67;100.00
47522;BME280;32291;52.010;4.446;2023-05-10T05:02:54;78002.78;;;-144.67;100.00
47522;BME280;32291;52.010;4.446;2023-05-10T05:03:56;78004.94;;;-144.67;100.00
47522;BME280;32291;52.010;4.446;2023-05-10T05:04:57;78015.63;;;-144.67;100.00
47522;BME280;32291;52.010;4.446;2023-05-10T05:05:59;78017.78;;;-144.67;100.00
47522;BME280;32291;52.010;4.446;2023-05-10T05:07:01;78022.06;;;-144.67;100.00
47522;BME280;32291;52.010;4.446;2023-05-10T05:08:02;78032.75;;;-144.67;100.00
47522;BME280;32291;52.010;4.446;2023-05-10T05:09:04;78019.91;;;-144.67;100.00
47522;BME280;32291;52.010;4.446;2023-05-10T05:10:08;78039.19;;;-144.67;100.00
47522;BME280;32291;52.010;4.446;2023-05-10T05:11:10;78039.19;;;-144.67;100.00
47522;BME280;32291;52.010;4.446;2023-05-10T05:12:11;78039.19;;;-144.67;100.00
47522;BME280;32291;52.010;4.446;2023-05-10T05:13:15;78045.59;;;-144.67;100.00
47522;BME280;32291;52.010;4.446;2023-05-10T05:14:17;78047.75;;;-144.67;100.00
47522;BME280;32291;52.010;4.446;2023-05-10T05:15:18;78047.75;;;-144.67;100.00
47522;BME280;32291;52.010;4.446;2023-05-10T05:16:20;78047.75;;;-144.67;100.00
47522;BME280;32291;52.010;4.446;2023-05-10T05:17:21;78047.75;;;-144.67;100.00
47522;BME280;32291;52.010;4.446;2023-05-10T05:18:23;78047.75;;;-144.67;100.00
47522;BME280;32291;52.010;4.446;2023-05-10T05:19:25;78043.47;;;-144.67;100.00
47522;BME280;32291;52.010;4.446;2023-05-10T05:20:27;78056.31;;;-144.67;100.00
47522;BME280;32291;52.010;4.446;2023-05-10T05:21:29;78056.31;;;-144.67;100.00
47522;BME280;32291;52.010;4.446;2023-05-10T05:22:30;78043.47;;;-144.67;100.00
47522;BME280;32291;52.010;4.446;2023-05-10T05:23:32;78043.47;;;-144.67;100.00
47522;BME280;32291;52.010;4.446;2023-05-10T05:24:37;78041.31;;;-144.67;100.00
47522;BME280;32291;52.010;4.446;2023-05-10T05:25:42;78043.47;;;-144.67;100.00
47522;BME280;32291;52.010;4.446;2023-05-10T05:26:44;78047.75;;;-144.67;100.00
47522;BME280;32291;52.010;4.446;2023-05-10T05:27:45;78039.19;;;-144.67;100.00
47522;BME280;32291;52.010;4.446;2023-05-10T05:28:47;78034.91;;;-144.67;100.00
47522;BME280;32291;52.010;4.446;2023-05-10T05:29:53;78032.75;;;-144.67;100.00
47522;BME280;32291;52.010;4.446;2023-05-10T05:30:55;78039.19;;;-144.67;100.00
47522;BME280;32291;52.010;4.446;2023-05-10T05:31:57;78039.19;;;-144.67;100.00
47522;BME280;32291;52.010;4.446;2023-05-10T05:32:59;78049.88;;;-144.67;100.00
47522;BME280;32291;52.010;4.446;2023-05-10T05:34:01;78049.88;;;-144.67;100.00
47522;BME280;32291;52.010;4.446;2023-05-10T05:35:03;78052.03;;;-144.67;100.00
47522;BME280;32291;52.010;4.446;2023-05-10T05:36:06;78058.44;;;-144.67;100.00
47522;BME280;32291;52.010;4.446;2023-05-10T05:37:07;78052.03;;;-144.67;100.00
47522;BME280;32291;52.010;4.446;2023-05-10T05:38:13;78056.31;;;-144.67;100.00
47522;BME280;32291;52.010;4.446;2023-05-10T05:39:15;78056.31;;;-144.67;100.00
47522;BME280;32291;52.010;4.446;2023-05-10T05:40:17;78056.31;;;-144.67;100.00
47522;BME280;32291;52.010;4.446;2023-05-10T05:41:19;78049.88;;;-144.67;100.00